KBGM/BGM METAR and TAF weather

Enter ICAO airport designator
Station Type Date Time Source
KBGM METAR 2022/11/26 09:53 UTC NOAA

KBGM 260953Z AUTO 30008KT 10SM SCT029 01/M04 A2999 RMK AO2 SLP170 T00111039


Station Type Date Time Source
KBGM Decoded METAR 2022/11/26 09:53 UTC NOAA

BINGHAMTON REGIONAL AIRPORT, NY, United States (KBGM) 42-12N 75-59W 492M
Nov 26, 2022 - 04:53 AM EST / 2022.11.26 0953 UTC
Wind: from the WNW (300 degrees) at 9 MPH (8 KT):0
Visibility: 10 mile(s):0
Sky conditions: partly cloudy
Temperature: 34.0 F (1.1 C)
Windchill: 26 F (-3 C):1
Dew Point: 25.0 F (-3.9 C)
Relative Humidity: 69%
Pressure (altimeter): 29.99 in. Hg (1015 hPa)
ob: KBGM 260953Z AUTO 30008KT 10SM SCT029 01/M04 A2999 RMK AO2 SLP170 T00111039
cycle: 10

Station Type Date Time Source
KBGM TAF 2022/11/26 09:36 UTC NOAA

TAF
AMD KBGM 260833Z 2609/2706 31009G20KT P6SM OVC040
FM261200 28006KT P6SM FEW250
FM261600 24009G16KT P6SM SKC
FM262100 22007KT P6SM SKC

Example: see airport list